Time;durP1;ratioP1;P1;durP2;ratioP2;P2;SDS_P1;SDS_P2;PMS_P1;PMS_P2;Temp;Humidity;BMP_temperature;BMP_pressure;BME280_temperature;BME280_humidity;BME280_pressure;Samples;Min_cycle;Max_cycle;Signal;HPM_P1;HPM_P2
2021/12/30 00:01:15;;;;;;;1.80;1.53;;;11.00;86.10;;;;;;5024753;28;46268;-69
2021/12/30 00:03:42;;;;;;;2.17;1.67;;;11.00;86.20;;;;;;5021886;28;46769;-69
2021/12/30 00:06:08;;;;;;;1.60;1.37;;;11.00;86.10;;;;;;5022853;28;48037;-69
2021/12/30 00:08:34;;;;;;;1.53;1.20;;;11.10;86.20;;;;;;5023079;28;46369;-69
2021/12/30 00:11:00;;;;;;;1.83;1.20;;;11.10;86.00;;;;;;5022407;28;46439;-69
2021/12/30 00:13:27;;;;;;;1.60;1.10;;;11.20;86.10;;;;;;5021946;28;46296;-69
2021/12/30 00:15:54;;;;;;;1.33;1.07;;;11.10;86.10;;;;;;5022799;28;46545;-69
2021/12/30 00:18:20;;;;;;;1.70;1.20;;;11.20;86.20;;;;;;5021758;28;46418;-69
2021/12/30 00:20:47;;;;;;;1.57;1.10;;;11.20;86.20;;;;;;5021347;28;46371;-69
2021/12/30 00:23:12;;;;;;;2.50;1.30;;;11.20;86.00;;;;;;5019606;28;46295;-69
2021/12/30 00:25:45;;;;;;;1.40;1.10;;;11.30;86.20;;;;;;5021244;28;48146;-69
2021/12/30 00:28:17;;;;;;;1.47;1.20;;;11.30;86.20;;;;;;5021437;28;46321;-69
2021/12/30 00:30:44;;;;;;;1.67;1.30;;;11.30;86.20;;;;;;5022078;28;46488;-69
2021/12/30 00:33:10;;;;;;;1.40;1.10;;;11.30;86.20;;;;;;5021667;28;46696;-69
2021/12/30 00:35:36;;;;;;;3.37;1.60;;;11.30;86.20;;;;;;5020685;28;48009;-69
2021/12/30 00:38:04;;;;;;;1.87;1.43;;;11.30;86.30;;;;;;5019898;28;46664;-69
2021/12/30 00:40:30;;;;;;;1.57;1.30;;;11.30;86.20;;;;;;5021643;28;46369;-69
2021/12/30 00:42:56;;;;;;;1.70;1.30;;;11.40;86.20;;;;;;5021236;28;46377;-68
2021/12/30 00:45:22;;;;;;;1.90;1.40;;;11.40;86.20;;;;;;5021167;28;48747;-68
2021/12/30 00:47:48;;;;;;;1.87;1.30;;;11.40;86.10;;;;;;5020574;28;46490;-68
2021/12/30 00:50:19;;;;;;;2.27;1.33;;;11.50;86.20;;;;;;5021415;28;46286;-69
2021/12/30 00:52:45;;;;;;;1.50;1.30;;;11.50;86.10;;;;;;5021157;28;46404;-68
2021/12/30 00:55:11;;;;;;;1.80;1.40;;;11.50;85.90;;;;;;5020733;28;48146;-68
2021/12/30 00:57:37;;;;;;;1.83;1.07;;;11.50;86.00;;;;;;5020417;28;46509;-69
2021/12/30 01:00:06;;;;;;;2.10;1.50;;;11.50;86.10;;;;;;5020934;28;45776;-69
2021/12/30 01:02:31;;;;;;;1.60;1.37;;;11.50;86.20;;;;;;5022707;28;46558;-68
2021/12/30 01:04:57;;;;;;;1.50;1.27;;;11.60;86.20;;;;;;5023926;28;48228;-69
2021/12/30 01:07:26;;;;;;;1.53;1.20;;;11.60;86.10;;;;;;5032989;28;46435;-68
2021/12/30 01:09:51;;;;;;;2.17;1.20;;;11.60;86.20;;;;;;5023463;28;46413;-69
2021/12/30 01:12:19;;;;;;;1.37;1.07;;;11.60;86.30;;;;;;5023875;28;46506;-68
2021/12/30 01:14:48;;;;;;;1.40;1.10;;;11.60;86.40;;;;;;5024097;28;47755;-68
2021/12/30 01:17:42;;;;;;;1.10;0.90;;;11.60;86.50;;;;;;5023518;28;46425;-68
2021/12/30 01:20:12;;;;;;;1.17;0.80;;;11.60;86.70;;;;;;5023962;28;46311;-68
2021/12/30 01:22:37;;;;;;;1.30;0.90;;;11.50;86.80;;;;;;5039609;28;46611;-69
2021/12/30 01:25:07;;;;;;;1.57;0.93;;;11.60;86.80;;;;;;5036507;28;48878;-68
2021/12/30 01:27:36;;;;;;;1.63;0.83;;;11.60;86.70;;;;;;5031175;28;46460;-68
2021/12/30 01:30:04;;;;;;;1.20;0.93;;;11.70;86.70;;;;;;5039415;28;46407;-69
2021/12/30 01:32:32;;;;;;;1.03;0.70;;;11.70;86.50;;;;;;5023655;28;46609;-68
2021/12/30 01:35:03;;;;;;;1.03;0.70;;;11.80;86.60;;;;;;5023987;28;48012;-69
2021/12/30 01:37:31;;;;;;;1.10;0.80;;;11.80;86.80;;;;;;5023462;28;46451;-70
2021/12/30 01:39:57;;;;;;;1.10;0.80;;;11.80;86.80;;;;;;5023364;28;46394;-68
2021/12/30 01:42:23;;;;;;;1.13;0.80;;;11.80;86.90;;;;;;5023624;28;46664;-69
2021/12/30 01:44:48;;;;;;;1.10;0.70;;;11.80;87.10;;;;;;5023311;28;48062;-69
2021/12/30 01:47:15;;;;;;;1.17;0.80;;;11.70;87.40;;;;;;5023127;28;46575;-68
2021/12/30 01:49:41;;;;;;;2.90;0.90;;;11.70;87.50;;;;;;5023868;28;45852;-69
2021/12/30 01:52:09;;;;;;;1.20;0.73;;;11.60;87.80;;;;;;5029744;28;46388;-69
2021/12/30 01:54:35;;;;;;;1.10;0.70;;;11.50;88.40;;;;;;5028674;28;48125;-69
2021/12/30 01:57:04;;;;;;;1.20;0.80;;;11.50;88.70;;;;;;5029436;28;46327;-70
2021/12/30 01:59:30;;;;;;;1.20;0.80;;;11.50;89.20;;;;;;5030305;28;46338;-70
2021/12/30 02:01:58;;;;;;;2.80;0.80;;;11.50;89.20;;;;;;5025638;28;46607;-69
2021/12/30 02:04:26;;;;;;;1.00;0.70;;;11.60;89.20;;;;;;5021724;28;47911;-69
2021/12/30 02:06:53;;;;;;;1.30;0.97;;;11.60;89.60;;;;;;5038472;28;46296;-69
2021/12/30 02:09:20;;;;;;;1.20;0.97;;;11.70;89.40;;;;;;5023102;28;46200;-69
2021/12/30 02:11:47;;;;;;;1.03;0.80;;;11.80;89.10;;;;;;5023226;28;46279;-69
2021/12/30 02:14:13;;;;;;;1.20;0.90;;;11.80;89.30;;;;;;5022238;28;48588;-69
2021/12/30 02:16:39;;;;;;;1.53;1.00;;;11.80;89.90;;;;;;5023191;28;46477;-69
2021/12/30 02:19:05;;;;;;;0.90;0.70;;;11.80;89.70;;;;;;5023736;28;46391;-68
2021/12/30 02:21:31;;;;;;;1.03;0.70;;;11.90;89.70;;;;;;5022030;28;45947;-69
2021/12/30 02:23:59;;;;;;;1.20;0.90;;;11.90;89.40;;;;;;5022790;28;46486;-69
2021/12/30 02:26:26;;;;;;;1.00;0.80;;;12.00;89.30;;;;;;5022758;28;46369;-68
2021/12/30 02:28:52;;;;;;;1.73;0.60;;;12.00;89.10;;;;;;5022665;28;46435;-69
2021/12/30 02:31:27;;;;;;;1.30;0.80;;;12.00;90.10;;;;;;5024618;28;46620;-69
2021/12/30 02:33:55;;;;;;;2.20;0.90;;;12.00;89.10;;;;;;5021619;28;48129;-68
2021/12/30 02:36:30;;;;;;;1.10;0.80;;;12.00;89.50;;;;;;5022583;28;46481;-69
2021/12/30 02:38:56;;;;;;;0.90;0.60;;;11.90;90.10;;;;;;5029367;28;46195;-69
2021/12/30 02:41:21;;;;;;;1.00;0.60;;;11.90;90.30;;;;;;5022591;28;46412;-69
2021/12/30 02:43:49;;;;;;;0.90;0.60;;;11.90;90.30;;;;;;5022205;28;48089;-69
2021/12/30 02:46:23;;;;;;;1.40;0.80;;;11.90;90.30;;;;;;5022603;28;46477;-68
2021/12/30 02:48:52;;;;;;;1.73;0.70;;;11.90;90.20;;;;;;5021984;28;46433;-69
2021/12/30 02:51:21;;;;;;;1.17;0.63;;;11.90;90.20;;;;;;5022493;28;46446;-69
2021/12/30 02:53:47;;;;;;;0.90;0.67;;;12.00;90.20;;;;;;5036865;28;48825;-69
2021/12/30 02:56:13;;;;;;;2.50;0.73;;;11.90;90.30;;;;;;5022361;28;46290;-69
2021/12/30 02:58:39;;;;;;;1.10;0.70;;;11.90;90.30;;;;;;5022422;28;46643;-69
2021/12/30 03:01:13;;;;;;;3.20;0.80;;;11.90;90.40;;;;;;5021877;28;46535;-70
2021/12/30 03:03:40;;;;;;;0.90;0.60;;;11.90;90.30;;;;;;5022269;28;48603;-70
2021/12/30 03:06:07;;;;;;;1.30;0.70;;;11.90;90.40;;;;;;5022077;28;46394;-69
2021/12/30 03:08:34;;;;;;;1.20;0.70;;;11.90;90.30;;;;;;5014513;28;46501;-69
2021/12/30 03:11:01;;;;;;;1.00;0.70;;;11.90;90.40;;;;;;5022455;28;46490;-69
2021/12/30 03:13:34;;;;;;;1.10;0.70;;;11.90;90.70;;;;;;5021330;28;47979;-70
2021/12/30 03:16:13;;;;;;;2.53;0.80;;;11.90;90.90;;;;;;5022266;28;46397;-69
2021/12/30 03:18:49;;;;;;;1.20;1.00;;;11.80;90.90;;;;;;5038480;28;46318;-69
2021/12/30 03:21:16;;;;;;;1.47;0.70;;;11.80;91.00;;;;;;5021383;28;46394;-69
2021/12/30 03:23:42;;;;;;;1.20;0.70;;;11.80;91.00;;;;;;5021605;28;48704;-67
2021/12/30 03:26:10;;;;;;;1.00;0.70;;;11.70;91.10;;;;;;5022718;28;45878;-67
2021/12/30 03:28:39;;;;;;;1.30;0.80;;;11.70;91.10;;;;;;5033583;28;46452;-68
2021/12/30 03:31:05;;;;;;;1.20;0.77;;;11.80;91.20;;;;;;5021889;28;46415;-68
2021/12/30 03:33:31;;;;;;;1.23;0.77;;;11.80;91.10;;;;;;5021576;28;47859;-67
2021/12/30 03:35:59;;;;;;;1.00;0.70;;;11.80;91.10;;;;;;5022098;28;46356;-70
2021/12/30 03:38:35;;;;;;;2.13;0.70;;;11.80;91.10;;;;;;5021123;28;46489;-71
2021/12/30 03:41:01;;;;;;;1.30;0.90;;;11.80;91.10;;;;;;5021178;28;46332;-69
2021/12/30 03:43:28;;;;;;;1.60;1.00;;;11.80;91.10;;;;;;5021177;28;48186;-69
2021/12/30 03:45:54;;;;;;;1.20;0.90;;;11.80;91.00;;;;;;5020970;28;46382;-69
2021/12/30 03:48:20;;;;;;;3.10;0.90;;;11.90;91.00;;;;;;5021315;28;45890;-67
2021/12/30 03:50:48;;;;;;;1.20;0.77;;;11.90;90.80;;;;;;5023304;28;46345;-67
2021/12/30 03:53:15;;;;;;;3.00;0.80;;;11.90;90.80;;;;;;5020367;28;47971;-67
2021/12/30 03:55:42;;;;;;;1.30;0.90;;;12.00;90.80;;;;;;5021365;28;46368;-69
2021/12/30 03:58:08;;;;;;;1.20;0.80;;;11.90;90.70;;;;;;5020430;28;46381;-68
2021/12/30 04:00:37;;;;;;;1.00;0.70;;;11.90;90.70;;;;;;5021778;28;46371;-69
2021/12/30 04:03:06;;;;;;;2.13;0.80;;;11.90;90.70;;;;;;5021322;28;48942;-68
2021/12/30 04:05:32;;;;;;;2.50;0.70;;;11.90;90.60;;;;;;5022761;28;46427;-68
2021/12/30 04:07:57;;;;;;;1.40;0.83;;;12.00;90.50;;;;;;5021333;28;46397;-69
2021/12/30 04:10:24;;;;;;;1.97;0.80;;;12.00;90.40;;;;;;5021357;28;46668;-68
2021/12/30 04:12:51;;;;;;;1.17;0.70;;;12.00;90.40;;;;;;5021267;28;48719;-69
2021/12/30 04:15:17;;;;;;;1.20;0.70;;;12.00;90.40;;;;;;5021225;28;46391;-68
2021/12/30 04:17:44;;;;;;;2.40;0.90;;;12.00;90.40;;;;;;5021088;28;46340;-68
2021/12/30 04:20:12;;;;;;;0.90;0.60;;;12.00;90.20;;;;;;5019947;28;46090;-69
2021/12/30 04:22:39;;;;;;;1.30;0.80;;;12.10;90.00;;;;;;5021404;28;49135;-67
2021/12/30 04:25:08;;;;;;;2.33;0.70;;;12.10;90.00;;;;;;5021108;28;46487;-69
2021/12/30 04:27:34;;;;;;;1.00;0.70;;;12.10;89.70;;;;;;5021373;28;46411;-69
2021/12/30 04:30:00;;;;;;;1.53;0.80;;;12.00;89.80;;;;;;5021076;28;46452;-68
2021/12/30 04:32:26;;;;;;;1.67;0.83;;;12.00;89.90;;;;;;5020962;28;49312;-69
2021/12/30 04:34:52;;;;;;;1.53;0.77;;;11.90;89.90;;;;;;5020459;28;46459;-69
2021/12/30 04:37:17;;;;;;;1.60;0.90;;;11.90;90.00;;;;;;5020708;28;46326;-69
2021/12/30 04:39:43;;;;;;;4.53;0.90;;;11.80;90.00;;;;;;5021048;28;46580;-68
2021/12/30 04:42:09;;;;;;;1.00;0.70;;;11.90;90.10;;;;;;5020985;28;47970;-68
2021/12/30 04:44:35;;;;;;;1.30;0.80;;;11.80;90.00;;;;;;5027329;28;46299;-69
2021/12/30 04:47:01;;;;;;;1.10;0.90;;;11.90;90.10;;;;;;5020377;28;46413;-68
2021/12/30 04:49:27;;;;;;;1.30;0.80;;;11.90;90.00;;;;;;5020053;28;46374;-68
2021/12/30 04:51:53;;;;;;;1.00;0.70;;;11.90;90.00;;;;;;5036307;28;48764;-68
2021/12/30 04:54:20;;;;;;;1.00;0.80;;;11.90;90.00;;;;;;5021078;28;46367;-69
2021/12/30 04:56:46;;;;;;;1.10;0.90;;;11.90;90.00;;;;;;5020319;28;46415;-69
2021/12/30 04:59:14;;;;;;;1.13;0.70;;;11.90;89.90;;;;;;5022390;28;46471;-69
2021/12/30 05:01:40;;;;;;;1.13;0.90;;;11.90;89.90;;;;;;5027087;28;47995;-69
2021/12/30 05:04:06;;;;;;;7.23;0.90;;;11.90;89.90;;;;;;5020430;28;46426;-68
2021/12/30 05:06:34;;;;;;;1.40;0.90;;;11.90;89.90;;;;;;5020953;28;46508;-69
2021/12/30 05:09:00;;;;;;;5.47;0.90;;;11.90;89.60;;;;;;5020803;28;46623;-68
2021/12/30 05:11:25;;;;;;;1.70;0.90;;;12.00;89.50;;;;;;5020124;28;48138;-69
2021/12/30 05:13:51;;;;;;;1.73;1.10;;;12.00;89.40;;;;;;5019619;28;46392;-69
2021/12/30 05:16:18;;;;;;;1.10;0.80;;;12.00;89.40;;;;;;5019577;28;45933;-68
2021/12/30 05:18:48;;;;;;;1.80;0.93;;;12.00;89.30;;;;;;5019079;28;45886;-69
2021/12/30 05:21:14;;;;;;;1.10;0.70;;;12.00;89.00;;;;;;5020212;28;47088;-69
2021/12/30 05:23:43;;;;;;;1.93;0.83;;;12.00;88.90;;;;;;5020522;28;46438;-69
2021/12/30 05:26:15;;;;;;;1.93;0.80;;;12.00;89.10;;;;;;5020546;28;46394;-70
2021/12/30 05:28:40;;;;;;;1.87;0.70;;;11.90;89.10;;;;;;5020647;28;46527;-69
2021/12/30 05:31:06;;;;;;;1.77;0.70;;;11.90;89.20;;;;;;5020038;28;47959;-69
2021/12/30 05:33:32;;;;;;;1.00;0.70;;;11.90;89.20;;;;;;5020734;28;46516;-69
2021/12/30 05:36:00;;;;;;;1.20;0.80;;;11.90;89.00;;;;;;5020485;28;46229;-70
2021/12/30 05:38:26;;;;;;;1.10;0.80;;;12.00;88.80;;;;;;5020207;28;46365;-69
2021/12/30 05:40:52;;;;;;;2.53;0.97;;;12.10;88.60;;;;;;5020204;28;48062;-69
2021/12/30 05:43:17;;;;;;;2.40;0.90;;;12.20;88.40;;;;;;5021568;28;46271;-68
2021/12/30 05:45:43;;;;;;;1.10;0.70;;;12.20;88.30;;;;;;5020304;28;46416;-68
2021/12/30 05:48:09;;;;;;;2.70;0.90;;;12.20;88.20;;;;;;5020111;28;46410;-68
2021/12/30 05:50:36;;;;;;;1.93;0.90;;;12.30;88.20;;;;;;5023612;28;47871;-68
2021/12/30 05:53:03;;;;;;;1.30;0.97;;;12.30;88.00;;;;;;5023689;28;46283;-68
2021/12/30 05:55:29;;;;;;;1.10;0.70;;;12.30;87.90;;;;;;5025021;28;46363;-69
2021/12/30 05:57:56;;;;;;;1.50;1.00;;;12.40;87.90;;;;;;5023293;28;46600;-69
2021/12/30 06:00:25;;;;;;;1.00;0.80;;;12.40;87.90;;;;;;5023315;28;47960;-69
2021/12/30 06:02:51;;;;;;;1.30;0.80;;;12.40;88.00;;;;;;5023428;28;46484;-69
2021/12/30 06:05:17;;;;;;;3.83;0.93;;;12.40;87.80;;;;;;5023648;28;46367;-68
2021/12/30 06:07:44;;;;;;;1.33;0.80;;;12.50;87.60;;;;;;5023405;28;46310;-69
2021/12/30 06:10:10;;;;;;;1.20;0.70;;;12.50;87.60;;;;;;5023261;28;47862;-69
2021/12/30 06:12:36;;;;;;;1.20;0.80;;;12.50;87.30;;;;;;5022929;28;46522;-67
2021/12/30 06:15:02;;;;;;;1.40;0.90;;;12.50;87.30;;;;;;5025096;28;46369;-68
2021/12/30 06:17:28;;;;;;;1.10;0.80;;;12.50;87.20;;;;;;5023133;28;46351;-68
2021/12/30 06:19:53;;;;;;;1.87;1.00;;;12.50;87.30;;;;;;5023566;28;48825;-69
2021/12/30 06:22:19;;;;;;;1.53;0.80;;;12.50;87.30;;;;;;5024663;28;46497;-69
2021/12/30 06:24:45;;;;;;;1.10;0.80;;;12.50;87.30;;;;;;5023282;28;46344;-69
2021/12/30 06:27:11;;;;;;;1.30;0.90;;;12.50;87.50;;;;;;5023090;28;46345;-66
2021/12/30 06:29:37;;;;;;;1.67;0.80;;;12.40;87.60;;;;;;5039101;28;47713;-68
2021/12/30 06:32:05;;;;;;;1.00;0.80;;;12.40;87.70;;;;;;5031542;28;46463;-68
2021/12/30 06:34:31;;;;;;;1.10;0.90;;;12.30;87.90;;;;;;5025206;28;46350;-68
2021/12/30 06:36:56;;;;;;;1.10;0.80;;;12.40;88.10;;;;;;5021988;28;46297;-67
2021/12/30 06:39:22;;;;;;;1.43;0.90;;;12.40;88.10;;;;;;5024142;28;47339;-67
2021/12/30 06:41:48;;;;;;;1.30;0.90;;;12.40;88.10;;;;;;5020954;28;46658;-67
2021/12/30 06:44:15;;;;;;;1.87;0.80;;;12.50;88.00;;;;;;5021992;28;46370;-68
2021/12/30 06:46:48;;;;;;;1.43;0.77;;;12.50;87.80;;;;;;5013153;28;45878;-69
2021/12/30 06:49:14;;;;;;;2.40;0.80;;;12.50;87.70;;;;;;5022317;28;47983;-67
2021/12/30 06:51:39;;;;;;;1.50;1.00;;;12.50;87.90;;;;;;5027918;28;46421;-68
2021/12/30 06:54:05;;;;;;;1.30;0.87;;;12.50;87.90;;;;;;5018650;28;46413;-67
2021/12/30 06:56:33;;;;;;;1.60;1.07;;;12.50;88.00;;;;;;5023980;28;46696;-67
2021/12/30 06:58:59;;;;;;;1.17;0.93;;;12.50;88.00;;;;;;5037507;28;48036;-67
2021/12/30 07:01:24;;;;;;;1.20;0.90;;;12.50;88.00;;;;;;5022033;28;46658;-67
2021/12/30 07:03:50;;;;;;;2.27;1.60;;;12.50;87.90;;;;;;5021818;28;46399;-68
2021/12/30 07:06:16;;;;;;;4.77;2.70;;;12.50;87.70;;;;;;5026897;28;46359;-67
2021/12/30 07:08:41;;;;;;;3.10;2.20;;;12.60;87.70;;;;;;5018805;28;48939;-67
2021/12/30 07:11:07;;;;;;;3.17;2.10;;;12.60;87.70;;;;;;5021527;28;46733;-68
2021/12/30 07:13:33;;;;;;;2.63;2.30;;;12.50;87.60;;;;;;5021970;28;46425;-68
2021/12/30 07:15:59;;;;;;;1.80;1.43;;;12.50;87.70;;;;;;5023083;28;46282;-67
2021/12/30 07:18:27;;;;;;;1.40;1.10;;;12.50;87.80;;;;;;5018354;28;46440;-67
2021/12/30 07:20:52;;;;;;;2.50;1.57;;;12.50;88.00;;;;;;5020584;28;46319;-69
2021/12/30 07:23:18;;;;;;;2.27;1.37;;;12.40;88.10;;;;;;5021651;28;45772;-68
2021/12/30 07:25:44;;;;;;;1.07;0.87;;;12.40;88.30;;;;;;5024140;28;46693;-67
2021/12/30 07:28:09;;;;;;;1.40;0.90;;;12.40;88.40;;;;;;5011038;28;47716;-67
2021/12/30 07:30:35;;;;;;;2.43;1.30;;;12.40;88.50;;;;;;5023185;28;46595;-68
2021/12/30 07:33:06;;;;;;;1.30;0.90;;;12.40;88.60;;;;;;5018422;28;46396;-67
2021/12/30 07:35:32;;;;;;;1.27;0.90;;;12.40;88.70;;;;;;5035113;28;46508;-68
2021/12/30 07:37:58;;;;;;;2.13;1.23;;;12.40;88.80;;;;;;5021830;28;47713;-67
2021/12/30 07:40:23;;;;;;;2.00;1.27;;;12.40;88.60;;;;;;5025600;28;46404;-67
2021/12/30 07:42:52;;;;;;;1.20;0.90;;;12.40;88.70;;;;;;5022883;28;46226;-67
2021/12/30 07:45:24;;;;;;;2.50;2.17;;;12.40;88.90;;;;;;5024214;28;46480;-67
2021/12/30 07:47:50;;;;;;;1.00;0.70;;;12.40;88.80;;;;;;5020858;28;48208;-67
2021/12/30 07:50:16;;;;;;;1.63;0.90;;;12.40;89.00;;;;;;5025082;28;46413;-67
2021/12/30 07:52:42;;;;;;;1.57;1.20;;;12.40;89.00;;;;;;5019714;28;46358;-68
2021/12/30 07:55:10;;;;;;;2.77;1.00;;;12.50;89.00;;;;;;5020378;28;45890;-67
2021/12/30 07:57:36;;;;;;;1.67;1.27;;;12.50;89.00;;;;;;5042230;28;49152;-67
2021/12/30 08:00:09;;;;;;;1.67;1.10;;;12.50;88.90;;;;;;5033707;28;46421;-67
2021/12/30 08:02:35;;;;;;;4.40;1.73;;;12.50;88.80;;;;;;5021815;28;46512;-67
2021/12/30 08:05:00;;;;;;;2.13;1.30;;;12.50;88.80;;;;;;5021225;28;46716;-67
2021/12/30 08:07:26;;;;;;;1.77;1.10;;;12.50;88.80;;;;;;5021454;28;47944;-67
2021/12/30 08:09:53;;;;;;;1.10;0.80;;;12.50;88.70;;;;;;5022345;28;46406;-66
2021/12/30 08:12:18;;;;;;;1.60;0.90;;;12.60;88.60;;;;;;5020803;28;46490;-66
2021/12/30 08:14:44;;;;;;;1.50;1.10;;;12.60;88.20;;;;;;5024678;28;46541;-66
2021/12/30 08:17:10;;;;;;;1.50;0.97;;;12.70;88.20;;;;;;5023860;28;48597;-67
2021/12/30 08:19:36;;;;;;;1.30;0.90;;;12.70;88.10;;;;;;5023296;28;46465;-66
2021/12/30 08:22:02;;;;;;;4.53;1.80;;;12.70;88.00;;;;;;5023562;28;46315;-68
2021/12/30 08:24:29;;;;;;;1.70;1.10;;;12.80;88.00;;;;;;5023460;28;46392;-70
2021/12/30 08:26:58;;;;;;;1.53;1.20;;;12.80;87.80;;;;;;5021823;28;48822;-67
2021/12/30 08:29:24;;;;;;;1.80;1.07;;;12.90;87.60;;;;;;5022096;28;46447;-66
2021/12/30 08:31:50;;;;;;;1.07;0.77;;;12.90;87.50;;;;;;5021645;28;46345;-67
2021/12/30 08:34:16;;;;;;;1.97;1.00;;;13.00;87.40;;;;;;5018208;28;46588;-67
2021/12/30 08:36:42;;;;;;;1.17;0.83;;;13.00;87.10;;;;;;5017296;28;48085;-67
2021/12/30 08:39:07;;;;;;;1.47;0.90;;;13.00;87.00;;;;;;5020408;28;46204;-67
2021/12/30 08:41:34;;;;;;;1.43;0.90;;;13.10;87.40;;;;;;5020641;28;46370;-67
2021/12/30 08:44:00;;;;;;;1.40;0.90;;;13.10;87.10;;;;;;5020131;28;46383;-67
2021/12/30 08:46:27;;;;;;;1.30;0.80;;;13.20;87.00;;;;;;5013278;28;46650;-66
2021/12/30 08:48:52;;;;;;;2.60;0.83;;;13.30;86.90;;;;;;5019727;28;46280;-66
2021/12/30 08:51:18;;;;;;;1.40;0.87;;;13.40;86.70;;;;;;5023170;28;46428;-66
2021/12/30 08:53:44;;;;;;;1.73;1.10;;;13.50;86.40;;;;;;5023360;28;46352;-67
2021/12/30 08:56:12;;;;;;;1.43;0.90;;;13.40;86.30;;;;;;5005296;28;46587;-66
2021/12/30 08:58:41;;;;;;;1.77;0.97;;;13.50;86.40;;;;;;5019591;28;46447;-66
2021/12/30 09:01:07;;;;;;;1.40;0.90;;;13.50;86.20;;;;;;5020211;28;46397;-65
2021/12/30 09:03:33;;;;;;;1.90;0.90;;;13.50;86.10;;;;;;5019815;28;46341;-66
2021/12/30 09:05:58;;;;;;;1.53;0.80;;;13.50;86.10;;;;;;5020235;28;49096;-67
2021/12/30 09:08:24;;;;;;;1.80;1.00;;;13.50;86.30;;;;;;5020479;28;46694;-67
2021/12/30 09:10:53;;;;;;;1.90;1.00;;;13.50;86.30;;;;;;5020902;28;46283;-66
2021/12/30 09:13:20;;;;;;;1.93;1.00;;;13.50;86.30;;;;;;5023048;28;46350;-64
2021/12/30 09:15:49;;;;;;;2.67;0.90;;;13.50;86.30;;;;;;5033330;28;47964;-64
2021/12/30 09:18:16;;;;;;;5.90;2.60;;;13.50;86.00;;;;;;5047477;28;45696;-65
2021/12/30 09:20:44;;;;;;;1.70;1.00;;;13.50;85.90;;;;;;5041871;28;46379;-65
2021/12/30 09:23:13;;;;;;;2.53;1.10;;;13.60;85.80;;;;;;5042205;28;46300;-65
2021/12/30 09:25:39;;;;;;;1.67;1.00;;;13.70;85.60;;;;;;5029870;28;46311;-68
2021/12/30 09:28:07;;;;;;;2.60;1.13;;;13.70;85.20;;;;;;5018631;28;46795;-67
2021/12/30 09:30:33;;;;;;;1.60;1.07;;;13.80;85.10;;;;;;5021688;28;46872;-68
2021/12/30 09:33:01;;;;;;;1.30;0.90;;;13.90;84.70;;;;;;5024657;28;46382;-67
2021/12/30 09:35:27;;;;;;;1.30;0.80;;;14.00;84.60;;;;;;5039988;28;48014;-68
2021/12/30 09:37:53;;;;;;;1.30;1.00;;;14.00;84.40;;;;;;5023602;28;46437;-67
2021/12/30 09:40:23;;;;;;;1.20;0.87;;;14.00;84.70;;;;;;5024045;28;45760;-67
2021/12/30 09:42:52;;;;;;;2.33;0.90;;;13.90;84.70;;;;;;5040012;28;46405;-68
2021/12/30 09:45:20;;;;;;;1.90;1.13;;;14.00;84.70;;;;;;5022728;28;48004;-67
2021/12/30 09:47:54;;;;;;;1.60;1.00;;;14.10;84.50;;;;;;5023429;28;46432;-68
2021/12/30 09:50:25;;;;;;;1.37;0.93;;;14.10;84.40;;;;;;5040189;28;45901;-67
2021/12/30 09:52:51;;;;;;;1.90;0.93;;;14.10;84.30;;;;;;5023890;28;46456;-67
2021/12/30 09:55:17;;;;;;;2.10;1.20;;;14.10;84.60;;;;;;5023264;28;47861;-67
2021/12/30 09:57:43;;;;;;;2.27;1.40;;;14.10;84.50;;;;;;5023715;28;46306;-66
2021/12/30 10:00:12;;;;;;;1.93;1.20;;;14.10;84.50;;;;;;5018528;28;45800;-67
2021/12/30 10:02:39;;;;;;;2.50;1.50;;;14.20;84.40;;;;;;5021337;28;46490;-66
2021/12/30 10:05:08;;;;;;;3.40;2.07;;;14.20;84.20;;;;;;5023969;28;49013;-70
2021/12/30 10:07:34;;;;;;;3.00;1.40;;;14.40;84.00;;;;;;5023002;28;46430;-67
2021/12/30 10:10:02;;;;;;;2.60;1.30;;;14.60;83.50;;;;;;5022743;28;46486;-67
2021/12/30 10:12:40;;;;;;;2.50;1.00;;;14.60;83.00;;;;;;5022329;28;46631;-68
2021/12/30 10:15:08;;;;;;;2.10;1.20;;;14.70;82.90;;;;;;5037306;28;47836;-68
2021/12/30 10:17:34;;;;;;;2.73;0.90;;;14.70;82.90;;;;;;5022645;28;46340;-67
2021/12/30 10:20:24;;;;;;;3.10;1.20;;;14.70;82.90;;;;;;5023188;28;45795;-67
2021/12/30 10:22:52;;;;;;;2.20;1.00;;;14.80;82.60;;;;;;5022189;28;46327;-67
2021/12/30 10:25:32;;;;;;;3.57;1.57;;;14.70;82.60;;;;;;5039358;28;48037;-67
2021/12/30 10:28:28;;;;;;;1.80;1.10;;;14.80;82.50;;;;;;5021941;28;46428;-67
2021/12/30 10:31:11;;;;;;;1.90;1.17;;;14.80;82.40;;;;;;5014873;28;46130;-67
2021/12/30 10:33:59;;;;;;;1.40;0.80;;;14.70;82.70;;;;;;5018773;28;46403;-66
2021/12/30 10:36:29;;;;;;;1.30;0.80;;;14.60;82.80;;;;;;5036921;28;47540;-66
2021/12/30 10:39:14;;;;;;;1.63;0.90;;;14.70;82.60;;;;;;5021501;28;46408;-68
2021/12/30 10:41:39;;;;;;;2.17;1.13;;;14.80;82.30;;;;;;5022851;28;46421;-68
2021/12/30 10:44:05;;;;;;;2.30;1.20;;;14.90;81.50;;;;;;5022897;28;46316;-67
2021/12/30 10:46:32;;;;;;;3.00;1.10;;;15.10;81.70;;;;;;5022680;28;47894;-66
2021/12/30 10:49:05;;;;;;;1.90;0.90;;;15.20;81.80;;;;;;5022900;28;46335;-67
2021/12/30 10:51:35;;;;;;;2.30;1.70;;;15.20;81.70;;;;;;5014708;28;46423;-66
2021/12/30 10:54:26;;;;;;;4.60;1.10;;;15.20;81.70;;;;;;5022168;28;46289;-65
2021/12/30 10:56:54;;;;;;;1.77;1.00;;;15.20;81.40;;;;;;5033572;28;47887;-66
2021/12/30 10:59:24;;;;;;;1.30;0.80;;;15.20;81.50;;;;;;5011318;28;46479;-67
2021/12/30 11:02:02;;;;;;;1.43;0.83;;;15.10;80.90;;;;;;5021824;28;46270;-66
2021/12/30 11:04:43;;;;;;;2.03;0.90;;;15.10;81.20;;;;;;5007333;28;46520;-65
2021/12/30 11:07:11;;;;;;;2.10;0.90;;;15.10;81.10;;;;;;5016881;28;48082;-68
2021/12/30 11:09:52;;;;;;;1.77;1.03;;;15.20;80.70;;;;;;5022421;28;46437;-66
2021/12/30 11:12:33;;;;;;;2.07;0.80;;;15.20;80.70;;;;;;5027379;28;46380;-66
2021/12/30 11:15:05;;;;;;;2.00;1.10;;;15.00;80.70;;;;;;5029861;28;46389;-66
2021/12/30 11:17:36;;;;;;;1.90;0.97;;;15.00;81.30;;;;;;5020637;28;46418;-66
2021/12/30 11:20:13;;;;;;;1.43;0.87;;;15.10;81.10;;;;;;5021373;28;45833;-67
2021/12/30 11:22:39;;;;;;;1.77;0.70;;;15.10;80.50;;;;;;5019646;28;46370;-66
2021/12/30 11:25:10;;;;;;;2.17;1.10;;;15.20;80.50;;;;;;5022142;28;46598;-66
2021/12/30 11:27:37;;;;;;;4.60;1.50;;;15.30;80.10;;;;;;5021310;28;48004;-66
2021/12/30 11:30:13;;;;;;;1.50;1.00;;;15.30;80.20;;;;;;5021496;28;46411;-66
2021/12/30 11:32:39;;;;;;;1.60;0.90;;;15.40;79.80;;;;;;5030753;28;46327;-66
2021/12/30 11:35:08;;;;;;;2.50;1.00;;;15.40;79.50;;;;;;5022548;28;46378;-68
2021/12/30 11:37:35;;;;;;;1.60;1.00;;;15.30;79.70;;;;;;5020390;28;48105;-66
2021/12/30 11:40:07;;;;;;;2.33;0.90;;;15.20;79.80;;;;;;5024467;28;46449;-67
2021/12/30 11:42:43;;;;;;;2.00;1.20;;;15.20;79.90;;;;;;5017346;28;46392;-66
2021/12/30 11:45:27;;;;;;;5.77;1.07;;;15.20;79.80;;;;;;5021336;28;46386;-66
2021/12/30 11:47:54;;;;;;;1.33;0.77;;;15.20;79.40;;;;;;5034883;28;48053;-66
2021/12/30 11:50:26;;;;;;;2.67;0.93;;;15.20;79.40;;;;;;5020830;28;46409;-67
2021/12/30 11:52:59;;;;;;;2.87;2.07;;;15.20;79.30;;;;;;5014355;28;46444;-67
2021/12/30 11:55:40;;;;;;;2.87;1.50;;;15.20;79.40;;;;;;5037536;28;46497;-66
2021/12/30 11:58:24;;;;;;;3.17;2.03;;;15.10;79.20;;;;;;5021089;28;47320;-66
2021/12/30 12:00:52;;;;;;;8.03;4.30;;;15.10;79.40;;;;;;5019462;28;46380;-66
2021/12/30 12:03:34;;;;;;;11.37;6.53;;;15.00;79.40;;;;;;5021479;28;46378;-66
2021/12/30 12:06:01;;;;;;;12.37;7.87;;;15.10;79.10;;;;;;5019921;28;46552;-66
2021/12/30 12:08:45;;;;;;;4.30;2.57;;;15.00;79.30;;;;;;5036674;28;47872;-66
2021/12/30 12:11:18;;;;;;;2.40;1.67;;;15.00;79.20;;;;;;5031815;28;46539;-67
2021/12/30 12:13:46;;;;;;;2.27;1.33;;;15.00;79.20;;;;;;5019240;28;46415;-66
2021/12/30 12:16:34;;;;;;;2.63;1.67;;;15.10;79.10;;;;;;5019346;28;46668;-66
2021/12/30 12:19:05;;;;;;;2.47;1.27;;;15.20;80.10;;;;;;5011700;28;47947;-66
2021/12/30 12:21:44;;;;;;;2.50;1.67;;;15.20;78.70;;;;;;5019837;28;46862;-66
2021/12/30 12:24:21;;;;;;;2.07;1.10;;;15.30;79.80;;;;;;5021355;28;46253;-66
2021/12/30 12:26:53;;;;;;;3.70;1.63;;;15.40;78.30;;;;;;5013419;28;46468;-66
2021/12/30 12:29:29;;;;;;;3.50;1.90;;;15.40;78.10;;;;;;5028031;28;47860;-66
2021/12/30 12:32:10;;;;;;;2.77;1.40;;;15.50;77.90;;;;;;5020507;28;46402;-66
2021/12/30 12:34:42;;;;;;;22.73;13.20;;;15.60;77.90;;;;;;5018101;28;45900;-66
2021/12/30 12:37:30;;;;;;;13.13;7.47;;;15.50;77.80;;;;;;5017215;28;46506;-66
2021/12/30 12:40:11;;;;;;;16.07;10.00;;;15.50;78.00;;;;;;5009768;28;48688;-67
2021/12/30 12:42:42;;;;;;;4.90;3.60;;;15.40;78.00;;;;;;5020197;28;46291;-67
2021/12/30 12:45:24;;;;;;;4.83;2.50;;;15.30;78.20;;;;;;5020805;28;46196;-66
2021/12/30 12:51:02;;;;;;;2.20;1.70;;;15.20;78.30;;;;;;5021057;28;46433;-67
2021/12/30 12:53:31;;;;;;;2.83;1.30;;;15.30;78.20;;;;;;5017542;28;46407;-68
2021/12/30 12:56:04;;;;;;;2.37;1.37;;;15.30;78.10;;;;;;5019476;28;46323;-66